Time;durP1;ratioP1;P1;durP2;ratioP2;P2;SDS_P1;SDS_P2;PMS_P1;PMS_P2;Temp;Humidity;BMP_temperature;BMP_pressure;BME280_temperature;BME280_humidity;BME280_pressure;Samples;Min_cycle;Max_cycle;Signal;HPM_P1;HPM_P2
2024/03/21 00:00:34;;;;;;;8.30;6.27;;;;;;;11.53;61.01;96534.66;4986918;28;20651;-67
2024/03/21 00:02:59;;;;;;;12.00;7.77;;;;;;;11.58;60.62;96532.66;4985775;28;20192;-71
2024/03/21 00:05:26;;;;;;;8.47;7.40;;;;;;;11.54;60.06;96529.31;4987949;28;20412;-68
2024/03/21 00:07:52;;;;;;;9.60;7.10;;;;;;;11.72;59.92;96534.66;4988204;28;20197;-68
2024/03/21 00:10:19;;;;;;;7.77;6.73;;;;;;;11.66;60.31;96535.78;4987062;28;20922;-69
2024/03/21 00:12:48;;;;;;;8.63;7.73;;;;;;;11.66;60.26;96538.41;4987150;28;20943;-70
2024/03/21 00:15:15;;;;;;;7.57;6.23;;;;;;;11.63;59.61;96536.78;4987315;28;20848;-70
2024/03/21 00:17:41;;;;;;;7.80;6.23;;;;;;;11.49;60.53;96528.69;4987968;28;20450;-69
2024/03/21 00:20:10;;;;;;;9.83;8.17;;;;;;;11.39;60.21;96536.13;4986718;28;21097;-69
2024/03/21 00:22:43;;;;;;;6.90;6.20;;;;;;;11.37;60.13;96537.97;4986432;28;20447;-68
2024/03/21 00:25:09;;;;;;;8.10;6.90;;;;;;;11.26;61.37;96547.25;4987561;28;20413;-69
2024/03/21 00:27:36;;;;;;;7.63;6.70;;;;;;;11.13;61.38;96533.81;4988480;28;20440;-70
2024/03/21 00:30:03;;;;;;;8.73;6.17;;;;;;;11.28;60.80;96532.28;4988358;28;21059;-69
2024/03/21 00:32:29;;;;;;;7.80;5.77;;;;;;;11.30;61.12;96536.53;4990436;28;20408;-69
2024/03/21 00:34:54;;;;;;;13.70;6.83;;;;;;;11.25;61.30;96538.53;4993014;28;20415;-69
2024/03/21 00:37:21;;;;;;;13.10;6.60;;;;;;;11.23;61.21;96530.69;4992286;28;20204;-69
2024/03/21 00:39:48;;;;;;;7.63;5.60;;;;;;;11.20;61.38;96528.22;4992570;28;20231;-69
2024/03/21 00:42:14;;;;;;;12.83;7.47;;;;;;;11.20;60.74;96524.75;4988419;28;20469;-71
2024/03/21 00:44:39;;;;;;;6.90;5.33;;;;;;;11.18;61.38;96527.44;4988914;28;20419;-69
2024/03/21 00:47:05;;;;;;;8.10;6.80;;;;;;;11.28;61.23;96522.63;4990405;28;20176;-68
2024/03/21 00:49:30;;;;;;;7.53;5.70;;;;;;;11.14;61.34;96515.34;4991005;28;20938;-67
2024/03/21 00:51:56;;;;;;;7.13;6.43;;;;;;;11.12;61.85;96518.97;4990951;28;20196;-68
2024/03/21 00:54:22;;;;;;;9.07;5.80;;;;;;;11.20;61.03;96519.50;4990274;28;20184;-68
2024/03/21 00:56:48;;;;;;;20.00;7.60;;;;;;;11.16;61.40;96508.25;4990480;28;20183;-69
2024/03/21 00:59:13;;;;;;;7.67;6.87;;;;;;;11.13;61.37;96512.81;4990702;28;20514;-68
2024/03/21 01:01:40;;;;;;;10.10;6.30;;;;;;;11.13;61.70;96508.41;4993546;28;20920;-70
2024/03/21 01:04:06;;;;;;;10.30;6.30;;;;;;;11.19;61.53;96508.09;4989708;28;20172;-69
2024/03/21 01:06:32;;;;;;;8.17;6.97;;;;;;;11.10;61.17;96507.66;4989862;28;21120;-69
2024/03/21 01:08:58;;;;;;;13.20;6.83;;;;;;;11.06;61.13;96503.50;4989212;28;20432;-68
2024/03/21 01:11:24;;;;;;;9.60;6.47;;;;;;;11.04;61.51;96510.56;4989667;28;20168;-68
2024/03/21 01:13:49;;;;;;;8.60;6.00;;;;;;;11.05;61.51;96509.66;4989174;28;20172;-68
2024/03/21 01:16:15;;;;;;;7.43;5.53;;;;;;;11.09;61.79;96512.06;4989432;28;20180;-68
2024/03/21 01:18:41;;;;;;;7.67;6.50;;;;;;;11.02;61.23;96513.25;4989405;28;20580;-68
2024/03/21 01:21:08;;;;;;;9.70;6.03;;;;;;;10.90;61.60;96506.78;4989563;28;20833;-68
2024/03/21 01:23:34;;;;;;;6.93;6.23;;;;;;;10.88;61.89;96515.63;4989397;28;20411;-70
2024/03/21 01:26:00;;;;;;;7.83;5.90;;;;;;;10.73;62.19;96509.28;4989891;28;20567;-68
2024/03/21 01:28:26;;;;;;;9.13;6.57;;;;;;;10.79;62.21;96514.25;4989930;28;20459;-68
2024/03/21 01:30:51;;;;;;;8.00;6.77;;;;;;;10.77;61.67;96511.72;4989557;28;20443;-67
2024/03/21 01:33:18;;;;;;;8.03;6.30;;;;;;;10.67;62.07;96512.16;4989038;28;20177;-70
2024/03/21 01:35:44;;;;;;;10.33;6.50;;;;;;;10.59;62.48;96513.34;4990083;28;20180;-67
2024/03/21 01:38:09;;;;;;;9.30;6.53;;;;;;;10.62;62.45;96506.25;4989980;28;20440;-68
2024/03/21 01:40:37;;;;;;;7.73;6.93;;;;;;;10.63;62.12;96508.81;4989821;28;20509;-69
2024/03/21 01:43:03;;;;;;;7.70;6.37;;;;;;;10.64;62.91;96505.28;4987846;28;20180;-68
2024/03/21 01:45:28;;;;;;;8.50;6.60;;;;;;;10.57;64.03;96512.53;4990165;28;20776;-66
2024/03/21 01:47:58;;;;;;;7.37;5.77;;;;;;;10.60;64.11;96509.78;4990078;28;20447;-69
2024/03/21 01:50:25;;;;;;;7.03;6.20;;;;;;;10.58;64.30;96503.78;4990209;28;20249;-68
2024/03/21 01:52:51;;;;;;;7.90;6.10;;;;;;;10.59;64.92;96504.63;4989587;28;20965;-68
2024/03/21 01:55:17;;;;;;;10.23;6.10;;;;;;;10.43;65.46;96509.63;4989044;28;20515;-69
2024/03/21 01:57:45;;;;;;;6.10;5.50;;;;;;;10.40;65.96;96503.69;4988180;28;20432;-69
2024/03/21 02:00:11;;;;;;;7.67;5.50;;;;;;;10.22;66.76;96502.63;4989171;28;20444;-68
2024/03/21 02:02:36;;;;;;;7.60;5.93;;;;;;;10.28;66.79;96498.03;4988861;28;21003;-68
2024/03/21 02:05:03;;;;;;;8.50;7.20;;;;;;;10.19;67.22;96508.84;4989113;28;20165;-69
2024/03/21 02:07:31;;;;;;;10.17;6.90;;;;;;;10.34;66.35;96504.78;4989481;28;20251;-69
2024/03/21 02:09:57;;;;;;;11.70;7.50;;;;;;;10.26;66.29;96499.81;4989173;28;20444;-70
2024/03/21 02:12:46;;;;;;;18.40;7.83;;;;;;;10.15;66.71;96502.03;4987321;28;20586;-70
2024/03/21 02:15:11;;;;;;;12.23;7.53;;;;;;;10.14;66.79;96498.53;4988941;28;20205;-68
2024/03/21 02:17:37;;;;;;;10.60;7.57;;;;;;;10.16;66.81;96488.84;4988590;28;20437;-69
2024/03/21 02:20:03;;;;;;;10.47;8.33;;;;;;;10.06;67.13;96497.13;4987941;28;20189;-70
2024/03/21 02:22:38;;;;;;;9.47;6.27;;;;;;;10.05;67.42;96490.22;4987685;28;20596;-69
2024/03/21 02:25:04;;;;;;;11.57;7.90;;;;;;;10.09;67.06;96494.41;4988298;28;20952;-69
2024/03/21 02:27:31;;;;;;;15.87;8.27;;;;;;;10.08;67.25;96487.44;4987763;28;20467;-69
2024/03/21 02:29:57;;;;;;;15.03;8.07;;;;;;;9.88;67.71;96483.03;4987976;28;20459;-70
2024/03/21 02:32:22;;;;;;;13.47;8.17;;;;;;;9.93;67.86;96496.78;4987901;28;20407;-69
2024/03/21 02:34:48;;;;;;;11.57;7.37;;;;;;;10.08;67.29;96497.94;4988814;28;20655;-67
2024/03/21 02:37:14;;;;;;;10.10;7.23;;;;;;;9.94;67.60;96494.13;4988989;28;20960;-69
2024/03/21 02:39:39;;;;;;;9.90;7.13;;;;;;;10.01;67.34;96493.84;4998014;28;20179;-69
2024/03/21 02:42:05;;;;;;;12.67;7.27;;;;;;;9.95;67.25;96495.81;4999710;28;20224;-70
2024/03/21 02:44:30;;;;;;;14.70;7.50;;;;;;;9.88;67.76;96490.88;5000995;28;20172;-68
2024/03/21 02:46:56;;;;;;;8.17;6.90;;;;;;;9.89;67.70;96489.97;4993333;28;20204;-70
2024/03/21 02:49:21;;;;;;;8.67;6.50;;;;;;;9.88;67.01;96496.13;4991556;28;20185;-69
2024/03/21 02:51:46;;;;;;;7.67;6.43;;;;;;;9.89;67.50;96485.56;4990403;28;20196;-68
2024/03/21 02:54:12;;;;;;;8.17;5.87;;;;;;;9.92;67.57;96485.47;4987255;28;20624;-69
2024/03/21 02:56:37;;;;;;;7.27;6.57;;;;;;;9.89;67.12;96487.34;4987181;28;20174;-68
2024/03/21 02:59:02;;;;;;;9.07;6.50;;;;;;;9.86;67.41;96488.31;4987133;28;20185;-69
2024/03/21 03:01:28;;;;;;;7.93;6.17;;;;;;;9.88;67.48;96486.50;4986927;28;20716;-69
2024/03/21 03:03:54;;;;;;;9.07;6.63;;;;;;;9.88;67.82;96486.50;4987394;28;20751;-69
2024/03/21 03:06:20;;;;;;;7.17;6.20;;;;;;;9.82;67.45;96484.09;4987489;28;20232;-69
2024/03/21 03:08:46;;;;;;;8.63;5.60;;;;;;;9.85;67.75;96488.34;4986887;28;20606;-66
2024/03/21 03:11:11;;;;;;;6.33;5.20;;;;;;;9.77;68.05;96490.44;4987145;28;20490;-69
2024/03/21 03:13:37;;;;;;;8.57;6.10;;;;;;;9.74;67.96;96491.41;4986718;28;20266;-68
2024/03/21 03:16:02;;;;;;;6.23;5.43;;;;;;;9.86;67.40;96490.94;4986836;28;20358;-68
2024/03/21 03:18:27;;;;;;;8.23;6.43;;;;;;;9.77;67.55;96487.81;4987108;28;20192;-68
2024/03/21 03:20:53;;;;;;;7.30;6.43;;;;;;;9.79;67.70;96489.47;4987440;28;20205;-68
2024/03/21 03:23:18;;;;;;;7.13;6.43;;;;;;;9.84;67.53;96499.78;4987914;28;20300;-68
2024/03/21 03:25:44;;;;;;;8.83;6.63;;;;;;;9.77;67.83;96493.91;4988403;28;20208;-68
2024/03/21 03:28:09;;;;;;;9.10;5.93;;;;;;;9.85;67.38;96494.47;4987684;28;20197;-69
2024/03/21 03:30:35;;;;;;;10.07;6.67;;;;;;;9.79;67.28;96494.72;4988266;28;20510;-69
2024/03/21 03:35:45;;;;;;;9.07;6.70;;;;;;;9.80;67.73;96491.16;4988876;28;20431;-69
2024/03/21 03:38:11;;;;;;;8.23;7.43;;;;;;;9.91;67.29;96499.47;4988603;28;20440;-70
2024/03/21 03:40:36;;;;;;;10.83;6.40;;;;;;;9.85;67.75;96491.88;4988206;28;20204;-70
2024/03/21 03:43:02;;;;;;;8.70;6.50;;;;;;;9.92;67.25;96490.69;4990430;28;20926;-70
2024/03/21 03:45:28;;;;;;;7.40;6.00;;;;;;;9.72;67.97;96486.22;4991702;28;20181;-68
2024/03/21 03:47:53;;;;;;;11.40;6.57;;;;;;;9.78;67.65;96490.41;4992163;28;20572;-69
2024/03/21 03:50:19;;;;;;;10.23;7.70;;;;;;;9.75;67.94;96485.25;4994522;28;20347;-68
2024/03/21 03:52:45;;;;;;;7.10;6.20;;;;;;;9.70;67.87;96493.28;4994649;28;20545;-70
2024/03/21 03:55:10;;;;;;;10.73;6.53;;;;;;;9.81;67.86;96489.41;4992523;28;20420;-68
2024/03/21 03:57:36;;;;;;;10.20;6.77;;;;;;;9.81;67.63;96484.19;5008978;28;20525;-69
2024/03/21 04:00:02;;;;;;;9.47;7.10;;;;;;;9.82;67.96;96486.72;4990823;28;20189;-68
2024/03/21 04:02:29;;;;;;;9.13;6.37;;;;;;;9.87;67.90;96489.16;4988026;28;20181;-68
2024/03/21 04:04:55;;;;;;;8.50;6.50;;;;;;;9.98;67.24;96484.34;4987779;28;20422;-69
2024/03/21 04:07:21;;;;;;;8.97;6.97;;;;;;;9.87;67.69;96489.16;4986991;28;20424;-69
2024/03/21 04:09:46;;;;;;;6.70;5.83;;;;;;;9.89;67.88;96484.72;4986975;28;20259;-69
2024/03/21 04:12:12;;;;;;;8.73;6.63;;;;;;;9.89;67.91;96493.41;4987015;28;20971;-69
2024/03/21 04:14:38;;;;;;;7.77;6.43;;;;;;;9.93;68.30;96488.94;4987142;28;20300;-68
2024/03/21 04:17:03;;;;;;;8.50;6.43;;;;;;;10.11;67.51;96490.81;4988077;28;20180;-69
2024/03/21 04:19:29;;;;;;;11.07;6.33;;;;;;;9.98;67.91;96492.22;4987526;28;20173;-70
2024/03/21 04:21:54;;;;;;;12.87;6.03;;;;;;;9.94;68.26;96488.00;4991798;28;20208;-70
2024/03/21 04:24:19;;;;;;;9.80;7.83;;;;;;;9.92;68.38;96485.47;4990704;28;20184;-68
2024/03/21 04:26:45;;;;;;;8.33;6.40;;;;;;;9.94;68.44;96495.88;4990836;28;20176;-70
2024/03/21 04:29:10;;;;;;;8.97;6.70;;;;;;;9.96;67.93;96499.28;4991683;28;20195;-68
2024/03/21 04:31:35;;;;;;;14.47;6.67;;;;;;;10.01;68.89;96493.84;4990998;28;20527;-70
2024/03/21 04:34:01;;;;;;;7.10;6.13;;;;;;;9.97;68.54;96498.38;4990985;28;20165;-69
2024/03/21 04:36:26;;;;;;;9.60;7.43;;;;;;;10.06;68.65;96508.50;4990613;28;20185;-70
2024/03/21 04:38:52;;;;;;;6.97;6.07;;;;;;;10.04;68.48;96501.59;4990875;28;20196;-69
2024/03/21 04:41:17;;;;;;;8.47;6.07;;;;;;;10.01;68.59;96505.19;4990654;28;20197;-69
2024/03/21 04:43:43;;;;;;;7.10;6.40;;;;;;;10.07;68.55;96504.97;4990562;28;20181;-67
2024/03/21 04:46:08;;;;;;;7.43;5.20;;;;;;;9.92;69.12;96513.41;4990336;28;20203;-69
2024/03/21 04:48:34;;;;;;;7.20;5.83;;;;;;;9.95;69.47;96515.94;5006183;28;20196;-68
2024/03/21 04:50:59;;;;;;;9.80;6.80;;;;;;;9.92;69.40;96514.28;4989986;28;20555;-68
2024/03/21 04:53:24;;;;;;;9.77;6.10;;;;;;;10.01;68.77;96523.53;4989878;28;20181;-68
2024/03/21 04:55:50;;;;;;;7.83;5.20;;;;;;;10.11;68.90;96514.41;4990415;28;20239;-67
2024/03/21 04:58:15;;;;;;;14.80;6.53;;;;;;;10.07;68.74;96515.44;4990444;28;20212;-69
2024/03/21 05:00:41;;;;;;;12.53;6.40;;;;;;;10.05;69.12;96514.66;4990455;28;20193;-68
2024/03/21 05:03:06;;;;;;;9.10;6.47;;;;;;;9.99;69.16;96514.88;4989836;28;20184;-69
2024/03/21 05:05:31;;;;;;;6.93;5.30;;;;;;;10.02;69.14;96509.53;4990395;28;20177;-69
2024/03/21 05:07:57;;;;;;;9.30;6.50;;;;;;;10.01;69.40;96514.84;4990467;28;20196;-69
2024/03/21 05:10:22;;;;;;;14.03;7.30;;;;;;;10.09;68.86;96516.25;4990270;28;20169;-69
2024/03/21 05:12:47;;;;;;;20.40;8.10;;;;;;;10.04;69.25;96514.69;4992535;28;20168;-70
2024/03/21 05:15:13;;;;;;;14.90;9.30;;;;;;;9.91;69.77;96514.34;5005358;28;20184;-69
2024/03/21 05:17:38;;;;;;;15.83;8.00;;;;;;;10.00;69.49;96516.59;4990370;28;20206;-69
2024/03/21 05:20:06;;;;;;;12.30;7.20;;;;;;;10.08;69.24;96511.88;4991012;28;20184;-70
2024/03/21 05:22:32;;;;;;;7.40;6.13;;;;;;;9.99;69.66;96516.66;4990867;28;20176;-68
2024/03/21 05:24:57;;;;;;;8.97;6.60;;;;;;;10.01;69.42;96526.16;4985694;28;20495;-69
2024/03/21 05:27:24;;;;;;;8.33;6.40;;;;;;;10.13;69.55;96524.81;4987745;28;20220;-69
2024/03/21 05:29:50;;;;;;;6.40;5.70;;;;;;;10.02;69.84;96513.94;4990485;28;20530;-67
2024/03/21 05:32:15;;;;;;;18.93;7.23;;;;;;;10.09;69.57;96524.09;4968455;28;20419;-68
2024/03/21 05:34:41;;;;;;;10.07;7.27;;;;;;;10.21;69.24;96517.50;5019187;28;20805;-69
2024/03/21 05:37:06;;;;;;;14.33;6.63;;;;;;;10.23;69.35;96520.94;4990270;28;20340;-69
2024/03/21 05:39:32;;;;;;;8.87;6.10;;;;;;;10.22;69.21;96524.44;4990078;28;20177;-67
2024/03/21 05:41:57;;;;;;;11.43;6.63;;;;;;;10.16;69.58;96515.06;4985418;28;20205;-70
2024/03/21 05:44:23;;;;;;;8.47;5.80;;;;;;;10.22;69.51;96519.22;4982245;28;20283;-68
2024/03/21 05:46:50;;;;;;;15.73;7.10;;;;;;;10.20;69.98;96509.69;4987630;28;20185;-67
2024/03/21 05:49:15;;;;;;;12.40;6.30;;;;;;;10.05;70.07;96511.19;4980690;28;20233;-70
2024/03/21 05:51:42;;;;;;;13.50;7.33;;;;;;;10.20;69.41;96521.03;4979941;28;20526;-69
2024/03/21 05:54:09;;;;;;;14.20;7.20;;;;;;;10.21;69.86;96528.00;4988411;28;20185;-68
2024/03/21 05:56:35;;;;;;;14.03;7.00;;;;;;;10.20;70.00;96531.53;4985830;28;20439;-69
2024/03/21 05:59:01;;;;;;;9.20;7.40;;;;;;;10.31;69.50;96524.13;4983527;28;20513;-67
2024/03/21 06:01:36;;;;;;;12.30;6.87;;;;;;;10.46;68.82;96525.25;4982621;28;21050;-68
2024/03/21 06:04:02;;;;;;;8.60;6.97;;;;;;;10.58;68.58;96521.25;4981982;28;20428;-68
2024/03/21 06:06:27;;;;;;;12.20;7.00;;;;;;;10.71;68.42;96519.00;4982645;28;20468;-67
2024/03/21 06:08:54;;;;;;;13.93;5.90;;;;;;;10.73;68.12;96525.03;4984552;28;20444;-67
2024/03/21 06:11:19;;;;;;;17.63;8.20;;;;;;;10.71;68.16;96527.72;4980907;28;20691;-68
2024/03/21 06:13:45;;;;;;;11.10;7.40;;;;;;;10.93;67.47;96535.50;4981678;28;20455;-68
2024/03/21 06:16:10;;;;;;;9.23;6.60;;;;;;;11.15;66.93;96529.31;4982303;28;20680;-69
2024/03/21 06:18:36;;;;;;;11.00;6.50;;;;;;;11.27;66.03;96531.44;4977623;28;20201;-69
2024/03/21 06:21:01;;;;;;;11.80;7.70;;;;;;;11.69;65.21;96526.91;4978779;28;20211;-69
2024/03/21 06:23:26;;;;;;;8.00;7.00;;;;;;;12.29;63.34;96523.19;4998845;28;20239;-69
2024/03/21 06:25:52;;;;;;;11.13;7.10;;;;;;;12.21;62.89;96524.47;4976210;28;20188;-69
2024/03/21 06:28:17;;;;;;;13.60;7.47;;;;;;;11.88;64.78;96526.94;4981361;28;20224;-68
2024/03/21 06:30:43;;;;;;;12.70;7.20;;;;;;;11.63;64.45;96526.28;4985808;28;20823;-71
2024/03/21 06:33:08;;;;;;;8.53;7.63;;;;;;;11.43;65.68;96540.34;4983030;28;20260;-71
2024/03/21 06:35:34;;;;;;;10.20;7.40;;;;;;;11.34;66.19;96540.75;4979220;28;20180;-67
2024/03/21 06:37:59;;;;;;;11.50;7.43;;;;;;;11.29;66.06;96537.47;4983135;28;20292;-68
2024/03/21 06:40:25;;;;;;;10.67;7.20;;;;;;;11.32;67.22;96547.00;4985345;28;20275;-67
2024/03/21 06:42:52;;;;;;;8.30;6.77;;;;;;;11.36;66.47;96544.16;4988975;28;20651;-69
2024/03/21 06:45:17;;;;;;;10.23;6.60;;;;;;;11.60;65.69;96549.22;4981308;28;20459;-67
2024/03/21 06:47:44;;;;;;;8.27;6.23;;;;;;;11.86;64.96;96545.41;4983760;28;20487;-70
2024/03/21 06:50:11;;;;;;;7.70;6.90;;;;;;;11.86;64.90;96548.03;4986579;28;20209;-68
2024/03/21 06:52:36;;;;;;;12.87;7.37;;;;;;;11.79;65.43;96549.25;4983844;28;20444;-68
2024/03/21 06:55:03;;;;;;;9.33;6.77;;;;;;;11.71;65.62;96552.19;4979573;28;20885;-70
2024/03/21 06:57:32;;;;;;;8.90;6.60;;;;;;;11.68;65.95;96552.34;4986790;28;20767;-69
2024/03/21 06:59:57;;;;;;;8.93;7.20;;;;;;;11.73;65.73;96558.25;4984516;28;20494;-68
2024/03/21 07:02:23;;;;;;;10.70;6.57;;;;;;;11.71;65.51;96567.13;4977304;28;20435;-67
2024/03/21 07:04:48;;;;;;;9.50;6.70;;;;;;;11.64;65.87;96566.53;4986952;28;20212;-68
2024/03/21 07:07:14;;;;;;;8.47;6.90;;;;;;;11.60;66.03;96584.25;4984493;28;20178;-68
2024/03/21 07:09:39;;;;;;;8.20;6.23;;;;;;;11.44;66.66;96576.19;4983120;28;20240;-69
2024/03/21 07:12:05;;;;;;;13.10;7.00;;;;;;;11.36;67.34;96582.69;4983400;28;20173;-67
2024/03/21 07:14:32;;;;;;;21.90;7.90;;;;;;;11.27;68.25;96593.59;4981192;28;20181;-69
2024/03/21 07:17:00;;;;;;;16.07;7.73;;;;;;;11.31;67.66;96593.41;4981934;28;20265;-67
2024/03/21 07:19:33;;;;;;;14.10;6.07;;;;;;;11.32;68.38;96591.66;4982161;28;20464;-65
2024/03/21 07:22:01;;;;;;;7.40;6.07;;;;;;;11.27;69.00;96598.84;4982254;28;20534;-68
2024/03/21 07:24:27;;;;;;;11.73;6.80;;;;;;;11.23;69.32;96604.25;4981360;28;20443;-68
2024/03/21 07:26:53;;;;;;;14.33;6.70;;;;;;;11.28;69.70;96608.47;4981930;28;20445;-68
2024/03/21 07:29:18;;;;;;;8.00;6.90;;;;;;;11.22;70.29;96605.19;4983056;28;21043;-70
2024/03/21 07:31:44;;;;;;;8.27;5.90;;;;;;;11.23;69.99;96606.88;4980889;28;20490;-70
2024/03/21 07:34:09;;;;;;;7.67;6.60;;;;;;;11.17;71.29;96612.41;4976302;28;20185;-66
2024/03/21 07:36:34;;;;;;;12.23;6.57;;;;;;;11.10;70.97;96618.84;4975303;28;20234;-64
2024/03/21 07:39:00;;;;;;;11.13;7.13;;;;;;;11.22;71.10;96617.47;4979042;28;20200;-67
2024/03/21 07:41:26;;;;;;;12.30;6.73;;;;;;;11.11;71.22;96625.78;4978606;28;20333;-69
2024/03/21 07:43:51;;;;;;;10.70;7.37;;;;;;;11.07;72.31;96626.84;4982743;28;20194;-69
2024/03/21 07:46:18;;;;;;;9.00;7.77;;;;;;;11.01;72.37;96629.75;4979580;28;20189;-69
2024/03/21 07:48:44;;;;;;;11.03;7.50;;;;;;;11.11;73.08;96638.94;4977804;28;20200;-70
2024/03/21 07:51:09;;;;;;;7.30;6.50;;;;;;;11.12;73.61;96637.16;4980804;28;20446;-68
2024/03/21 07:53:35;;;;;;;9.67;7.30;;;;;;;11.04;74.25;96642.72;4973829;28;20240;-66
2024/03/21 07:56:01;;;;;;;12.53;7.73;;;;;;;11.14;73.40;96641.41;4976472;28;20181;-66
2024/03/21 07:58:26;;;;;;;8.60;7.80;;;;;;;11.03;73.58;96651.50;4976459;28;20197;-66
2024/03/21 08:00:51;;;;;;;8.30;7.37;;;;;;;10.96;74.06;96648.31;4980388;28;20208;-68
2024/03/21 08:03:17;;;;;;;15.20;7.87;;;;;;;11.06;73.72;96653.19;4980386;28;20185;-67
2024/03/21 08:05:42;;;;;;;8.90;7.30;;;;;;;11.08;74.22;96654.81;4973649;28;20200;-67
2024/03/21 08:08:07;;;;;;;10.50;7.27;;;;;;;10.96;74.84;96660.56;4979577;28;20412;-64
2024/03/21 08:10:33;;;;;;;8.90;8.10;;;;;;;11.02;74.19;96662.94;4983351;28;20190;-67
2024/03/21 08:12:58;;;;;;;8.70;7.80;;;;;;;11.06;74.17;96659.28;4984964;28;20193;-67
2024/03/21 08:15:23;;;;;;;11.43;7.37;;;;;;;11.03;74.73;96667.25;4988174;28;20180;-69
2024/03/21 08:17:49;;;;;;;9.80;7.80;;;;;;;11.12;75.02;96664.25;4978790;28;20205;-66
2024/03/21 08:20:14;;;;;;;11.00;7.60;;;;;;;11.15;74.86;96666.78;4970639;28;20230;-67
2024/03/21 08:22:40;;;;;;;10.70;6.80;;;;;;;11.30;74.59;96672.31;4981889;28;20185;-66
2024/03/21 08:25:05;;;;;;;8.83;7.57;;;;;;;11.23;74.75;96669.94;4980661;28;20772;-66
2024/03/21 08:27:31;;;;;;;16.03;8.50;;;;;;;11.21;75.44;96671.75;4977966;28;20216;-66
2024/03/21 08:29:57;;;;;;;9.20;6.87;;;;;;;11.30;75.63;96667.06;4989472;28;20261;-68
2024/03/21 08:32:22;;;;;;;9.73;8.83;;;;;;;11.26;76.13;96671.56;4980717;28;20501;-66
2024/03/21 08:34:48;;;;;;;8.13;6.67;;;;;;;11.23;75.83;96676.97;4982224;28;20311;-66
2024/03/21 08:37:17;;;;;;;16.47;8.17;;;;;;;11.19;76.42;96667.50;4974734;28;20196;-65
2024/03/21 08:39:42;;;;;;;15.33;9.60;;;;;;;11.31;75.94;96672.22;4981982;28;20454;-65
2024/03/21 08:42:08;;;;;;;9.80;7.17;;;;;;;11.31;76.07;96674.00;4979298;28;20866;-67
2024/03/21 08:44:33;;;;;;;8.20;7.40;;;;;;;11.26;76.65;96666.31;4979820;28;20224;-68
2024/03/21 08:46:59;;;;;;;10.50;9.37;;;;;;;11.29;77.11;96675.84;4971760;28;20188;-66
2024/03/21 08:49:24;;;;;;;9.47;8.27;;;;;;;11.44;77.16;96676.03;4974205;28;20205;-66
2024/03/21 08:51:50;;;;;;;10.47;8.63;;;;;;;11.36;78.52;96678.16;4981304;28;20226;-67
2024/03/21 08:54:15;;;;;;;16.23;8.40;;;;;;;11.32;78.87;96683.59;4974051;28;20176;-65
2024/03/21 08:56:41;;;;;;;9.43;8.50;;;;;;;11.42;78.69;96679.66;4980948;28;20722;-66
2024/03/21 08:59:06;;;;;;;15.53;9.13;;;;;;;11.39;78.90;96672.75;4975784;28;20251;-69
2024/03/21 09:01:32;;;;;;;10.20;9.00;;;;;;;11.47;78.86;96676.84;4972617;28;20212;-68
2024/03/21 09:03:57;;;;;;;11.27;8.17;;;;;;;11.64;78.22;96677.78;4979598;28;20625;-68
2024/03/21 09:06:23;;;;;;;11.07;8.73;;;;;;;11.62;78.86;96684.91;4983347;28;20180;-69
2024/03/21 09:08:48;;;;;;;11.43;8.50;;;;;;;11.63;79.42;96681.34;4985618;28;20240;-64
2024/03/21 09:11:14;;;;;;;10.53;8.63;;;;;;;11.64;79.84;96693.56;4980262;28;20173;-69
2024/03/21 09:13:39;;;;;;;11.03;8.93;;;;;;;11.63;79.80;96697.13;4985195;28;20279;-67
2024/03/21 09:16:07;;;;;;;9.53;8.30;;;;;;;11.66;79.01;96691.72;4991627;28;20283;-66
2024/03/21 09:18:33;;;;;;;12.30;8.07;;;;;;;11.64;79.50;96690.94;4993752;28;20310;-67
2024/03/21 09:21:02;;;;;;;10.33;8.80;;;;;;;11.71;79.81;96695.94;4989894;28;20494;-70
2024/03/21 09:23:28;;;;;;;17.63;8.30;;;;;;;11.76;79.75;96692.19;4986022;28;20330;-67
2024/03/21 09:26:00;;;;;;;19.60;10.00;;;;;;;11.98;79.10;96694.75;4980475;28;20479;-70
2024/03/21 09:28:26;;;;;;;12.83;8.10;;;;;;;12.23;77.94;96688.38;4981671;28;20201;-68
2024/03/21 09:30:51;;;;;;;9.60;8.70;;;;;;;12.04;78.71;96689.22;4988424;28;20428;-69
2024/03/21 09:33:17;;;;;;;10.47;7.97;;;;;;;12.01;79.18;96685.88;4984515;28;21002;-67
2024/03/21 09:35:43;;;;;;;9.10;7.87;;;;;;;12.10;79.16;96682.84;4985713;28;20224;-68
2024/03/21 09:38:09;;;;;;;9.23;8.33;;;;;;;12.26;78.41;96688.25;4987926;28;20217;-68
2024/03/21 09:40:35;;;;;;;15.67;8.13;;;;;;;12.29;78.54;96681.06;4988377;28;20530;-68
2024/03/21 09:43:03;;;;;;;8.40;7.60;;;;;;;12.49;77.03;96687.16;4977778;28;20189;-67
2024/03/21 09:45:30;;;;;;;10.53;7.47;;;;;;;12.36;78.28;96686.91;4988028;28;21090;-69
2024/03/21 09:47:55;;;;;;;10.60;6.97;;;;;;;12.27;78.48;96689.94;4988178;28;20519;-67
2024/03/21 09:50:23;;;;;;;11.53;7.90;;;;;;;12.36;78.63;96686.91;4989149;28;20846;-66
2024/03/21 09:52:50;;;;;;;9.60;8.40;;;;;;;12.28;78.80;96684.63;4989016;28;20212;-67
2024/03/21 09:55:15;;;;;;;8.47;7.10;;;;;;;12.40;78.22;96691.09;4988903;28;20515;-65
2024/03/21 09:57:41;;;;;;;9.10;8.20;;;;;;;12.33;78.67;96688.81;4987286;28;21001;-69
2024/03/21 10:00:18;;;;;;;19.23;9.07;;;;;;;12.46;78.60;96692.59;4989759;28;20235;-69
2024/03/21 10:02:46;;;;;;;10.17;8.50;;;;;;;12.57;78.42;96687.69;4990219;28;20442;-68
2024/03/21 10:05:22;;;;;;;11.20;8.30;;;;;;;12.41;79.53;96686.69;4987774;28;20428;-69
2024/03/21 10:07:48;;;;;;;12.10;9.23;;;;;;;12.46;79.18;96690.81;4981608;28;21324;-69
2024/03/21 10:10:14;;;;;;;8.97;8.17;;;;;;;12.57;78.70;96687.69;4991847;28;20463;-68
2024/03/21 10:12:40;;;;;;;10.53;9.60;;;;;;;12.81;77.94;96679.53;4990643;28;20444;-64
2024/03/21 10:15:10;;;;;;;10.40;9.30;;;;;;;12.83;77.86;96681.16;4989412;28;20181;-68
2024/03/21 10:17:35;;;;;;;9.20;8.30;;;;;;;12.86;78.15;96681.00;4987496;28;20207;-66
2024/03/21 10:20:01;;;;;;;11.00;8.23;;;;;;;12.87;77.52;96690.63;4985741;28;20420;-67
2024/03/21 10:22:26;;;;;;;14.20;8.90;;;;;;;12.99;77.37;96690.94;4986175;28;20544;-67
2024/03/21 10:24:53;;;;;;;9.50;8.47;;;;;;;13.13;76.65;96692.00;4985649;28;20181;-69
2024/03/21 10:27:19;;;;;;;7.77;6.97;;;;;;;13.40;75.46;96693.34;4986386;28;20259;-66
2024/03/21 10:29:45;;;;;;;9.33;8.53;;;;;;;13.52;75.40;96687.47;4986929;28;20424;-66
2024/03/21 10:32:17;;;;;;;9.10;7.40;;;;;;;13.43;75.50;96688.75;4986672;28;20424;-70
2024/03/21 10:34:53;;;;;;;12.47;8.30;;;;;;;13.40;76.15;96701.25;4986893;28;20922;-67
2024/03/21 10:37:24;;;;;;;9.30;7.10;;;;;;;13.54;75.70;96699.63;4986302;28;20456;-69
2024/03/21 10:39:52;;;;;;;9.80;8.10;;;;;;;13.56;75.96;96702.19;4986256;28;20452;-66
2024/03/21 10:42:28;;;;;;;11.80;7.67;;;;;;;13.77;75.12;96698.44;4982714;28;20582;-69
2024/03/21 10:45:03;;;;;;;9.43;7.00;;;;;;;13.61;75.53;96694.91;4977937;28;20424;-66
2024/03/21 10:47:29;;;;;;;10.07;7.90;;;;;;;13.68;74.95;96696.28;4984572;28;20443;-68
2024/03/21 10:49:55;;;;;;;10.50;8.00;;;;;;;13.66;75.32;96694.66;4985447;28;21017;-65
2024/03/21 10:52:20;;;;;;;7.87;7.17;;;;;;;13.71;75.11;96695.28;4982957;28;20184;-65
2024/03/21 10:54:50;;;;;;;10.47;7.50;;;;;;;13.70;75.12;96702.34;4981013;28;20208;-70
2024/03/21 10:57:24;;;;;;;11.80;7.87;;;;;;;13.70;75.12;96704.97;4979482;28;20255;-68
2024/03/21 11:00:06;;;;;;;9.30;7.53;;;;;;;13.90;74.67;96690.75;4981881;28;20854;-69
2024/03/21 11:02:31;;;;;;;8.27;7.37;;;;;;;14.34;73.41;96678.75;4980470;28;20811;-68
2024/03/21 11:05:09;;;;;;;9.43;7.47;;;;;;;14.78;72.39;96675.47;4985464;28;20436;-69
2024/03/21 11:07:34;;;;;;;10.77;7.03;;;;;;;14.88;70.90;96676.66;4981043;28;20294;-68
2024/03/21 11:10:02;;;;;;;12.20;8.43;;;;;;;15.13;70.37;96680.53;4986278;28;20487;-69
2024/03/21 11:12:29;;;;;;;7.67;6.93;;;;;;;15.11;69.56;96671.84;4986048;28;20204;-68
2024/03/21 11:14:55;;;;;;;7.83;6.97;;;;;;;15.11;69.24;96685.06;4986588;28;20412;-70
2024/03/21 11:17:20;;;;;;;10.47;7.23;;;;;;;15.36;68.99;96685.34;4985671;28;20824;-68
2024/03/21 11:19:49;;;;;;;8.37;7.03;;;;;;;15.37;68.34;96680.91;4986490;28;20200;-65
2024/03/21 11:22:15;;;;;;;11.00;7.57;;;;;;;15.35;69.13;96678.34;4986265;28;20279;-67
2024/03/21 11:24:40;;;;;;;10.07;6.97;;;;;;;15.80;68.63;96666.03;5017350;28;20440;-68
2024/03/21 11:27:13;;;;;;;11.10;8.40;;;;;;;16.19;65.79;96667.16;4985665;28;20172;-68
2024/03/21 11:29:38;;;;;;;7.73;6.93;;;;;;;16.46;62.56;96661.06;4986855;28;20683;-69